createdAt,value
2018-07-01T00:01:17.080Z,56.00
2018-07-01T00:03:45.793Z,56.60
2018-07-01T00:06:15.304Z,56.50
2018-07-01T00:08:44.038Z,57.90
2018-07-01T00:11:12.895Z,58.10
2018-07-01T00:13:41.549Z,58.00
2018-07-01T00:16:10.291Z,58.80
2018-07-01T00:18:39.071Z,57.90
2018-07-01T00:21:07.811Z,57.70
2018-07-01T00:23:36.572Z,55.90
2018-07-01T00:26:05.243Z,56.90
2018-07-01T00:28:34.204Z,57.40
2018-07-01T00:31:02.820Z,56.70
2018-07-01T00:33:32.122Z,58.10
2018-07-01T00:36:00.752Z,58.40
2018-07-01T00:38:29.726Z,58.50
2018-07-01T00:40:58.563Z,59.00
2018-07-01T00:43:27.312Z,58.90
2018-07-01T00:45:56.342Z,59.10
2018-07-01T00:50:53.584Z,58.80
2018-07-01T00:53:22.559Z,60.10
2018-07-01T00:55:51.308Z,60.70
2018-07-01T00:58:20.663Z,60.70
2018-07-01T01:00:49.686Z,61.20
2018-07-01T01:03:18.479Z,61.30
2018-07-01T01:05:47.833Z,60.80
2018-07-01T01:08:16.629Z,61.20
2018-07-01T01:10:45.308Z,61.20
2018-07-01T01:13:13.981Z,61.70
2018-07-01T01:15:42.605Z,62.50
2018-07-01T01:18:11.350Z,61.70
2018-07-01T01:20:40.348Z,63.00
2018-07-01T01:23:09.409Z,61.80
2018-07-01T01:25:38.668Z,62.50
2018-07-01T01:28:07.415Z,62.60
2018-07-01T01:30:36.033Z,63.00
2018-07-01T01:33:04.838Z,63.80
2018-07-01T01:35:33.919Z,63.10
2018-07-01T01:38:02.583Z,64.10
2018-07-01T01:40:35.518Z,62.70
2018-07-01T01:43:09.548Z,61.30
2018-07-01T01:45:43.606Z,62.50
2018-07-01T01:48:20.634Z,63.00
2018-07-01T01:50:57.352Z,62.50
2018-07-01T01:53:39.065Z,64.80
2018-07-01T01:56:33.009Z,65.80
2018-07-01T01:59:05.662Z,67.40
2018-07-01T02:01:53.305Z,68.70
2018-07-01T02:04:29.916Z,69.10
2018-07-01T02:07:01.766Z,71.50
2018-07-01T02:09:33.005Z,72.30
2018-07-01T02:12:02.926Z,72.60
2018-07-01T02:14:37.905Z,71.30
2018-07-01T02:17:08.983Z,71.00
2018-07-01T02:19:37.893Z,70.60
2018-07-01T02:22:09.352Z,69.70
2018-07-01T02:24:41.217Z,69.30
2018-07-01T02:27:10.276Z,69.70
2018-07-01T02:29:38.993Z,70.40
2018-07-01T02:32:07.917Z,70.50
2018-07-01T02:34:36.693Z,70.00
2018-07-01T02:37:05.552Z,70.70
2018-07-01T02:39:34.120Z,70.80
2018-07-01T02:42:03.090Z,71.20
2018-07-01T02:44:32.095Z,71.80
2018-07-01T02:47:01.570Z,71.60
2018-07-01T02:49:30.435Z,72.10
2018-07-01T02:51:59.718Z,72.30
2018-07-01T02:54:28.572Z,71.70
2018-07-01T02:56:57.639Z,71.70
2018-07-01T02:59:26.609Z,71.70
2018-07-01T03:01:55.700Z,73.00
2018-07-01T03:04:24.361Z,73.40
2018-07-01T03:06:53.362Z,73.60
2018-07-01T03:09:22.026Z,74.20
2018-07-01T03:11:51.429Z,73.10
2018-07-01T03:14:20.403Z,73.40
2018-07-01T03:16:49.469Z,74.50
2018-07-01T03:19:18.612Z,74.80
2018-07-01T03:21:47.300Z,74.70
2018-07-01T03:24:16.070Z,74.70
2018-07-01T03:26:44.718Z,75.40
2018-07-01T03:29:13.791Z,75.10
2018-07-01T03:31:42.585Z,75.00
2018-07-01T03:34:12.406Z,75.20
2018-07-01T03:36:41.031Z,75.50
2018-07-01T03:39:10.498Z,75.20
2018-07-01T03:41:39.231Z,75.70
2018-07-01T03:44:08.056Z,75.90
2018-07-01T03:46:37.748Z,75.40
2018-07-01T03:49:07.093Z,75.00
2018-07-01T03:51:35.840Z,75.40
2018-07-01T03:54:05.116Z,74.70
2018-07-01T03:56:33.805Z,75.20
2018-07-01T03:59:03.122Z,73.60
2018-07-01T04:01:31.837Z,73.60
2018-07-01T04:04:00.792Z,74.30
2018-07-01T04:06:29.518Z,75.80
2018-07-01T04:08:58.711Z,76.30
2018-07-01T04:11:27.678Z,75.40
2018-07-01T04:13:56.757Z,76.00
2018-07-01T04:16:25.438Z,75.80
2018-07-01T04:18:54.676Z,74.30
2018-07-01T04:21:23.640Z,75.00
2018-07-01T04:23:52.634Z,75.00
2018-07-01T04:26:21.700Z,73.80
2018-07-01T04:28:50.549Z,73.30
2018-07-01T04:31:19.210Z,72.70
2018-07-01T04:33:48.409Z,72.50
2018-07-01T04:36:17.465Z,73.40
2018-07-01T04:38:46.426Z,74.20
2018-07-01T04:41:15.574Z,74.90
2018-07-01T04:43:44.800Z,74.60
2018-07-01T04:46:14.271Z,73.70
2018-07-01T04:48:43.147Z,74.20
2018-07-01T04:51:12.389Z,75.20
2018-07-01T04:53:41.061Z,74.90
2018-07-01T04:56:09.994Z,76.30
2018-07-01T04:58:40.050Z,76.30
2018-07-01T05:01:08.942Z,73.50
2018-07-01T05:03:38.605Z,75.00
2018-07-01T05:06:07.806Z,75.20
2018-07-01T05:08:36.569Z,74.20
2018-07-01T05:11:05.678Z,74.40
2018-07-01T05:13:34.441Z,73.50
2018-07-01T05:16:03.359Z,73.60
2018-07-01T05:18:32.291Z,74.10
2018-07-01T05:21:01.224Z,74.50
2018-07-01T05:23:30.290Z,72.80
2018-07-01T05:25:59.316Z,70.00
2018-07-01T05:28:27.983Z,71.20
2018-07-01T05:30:56.762Z,72.30
2018-07-01T05:33:25.592Z,72.00
2018-07-01T05:35:54.232Z,72.50
2018-07-01T05:38:22.854Z,69.90
2018-07-01T05:40:51.868Z,70.10
2018-07-01T05:43:20.553Z,70.70
2018-07-01T05:45:49.356Z,70.10
2018-07-01T05:48:17.972Z,66.70
2018-07-01T05:50:46.866Z,66.90
2018-07-01T05:53:15.604Z,69.10
2018-07-01T05:55:44.575Z,69.50
2018-07-01T05:58:13.365Z,69.80
2018-07-01T06:00:42.129Z,69.00
2018-07-01T06:03:10.820Z,64.50
2018-07-01T06:05:39.481Z,64.30
2018-07-01T06:08:08.605Z,64.60
2018-07-01T06:10:37.483Z,61.80
2018-07-01T06:13:06.497Z,62.60
2018-07-01T06:15:35.286Z,61.50
2018-07-01T06:18:04.046Z,60.60
2018-07-01T06:20:32.805Z,62.10
2018-07-01T06:23:01.788Z,61.20
2018-07-01T06:25:30.746Z,60.10
2018-07-01T06:27:59.878Z,58.20
2018-07-01T07:00:09.904Z,54.60
2018-07-01T07:32:19.196Z,50.30
2018-07-01T07:34:48.705Z,46.10
2018-07-01T07:37:17.454Z,44.60
2018-07-01T07:47:12.306Z,46.40
2018-07-01T07:49:41.180Z,42.70
2018-07-01T08:04:31.569Z,43.20
2018-07-01T10:01:00.448Z,34.10
2018-07-01T19:28:36.214Z,35.00
2018-07-01T19:52:25.426Z,38.40
2018-07-01T19:54:57.956Z,39.00
2018-07-01T19:57:27.422Z,39.90
2018-07-01T19:59:57.198Z,40.20
2018-07-01T20:02:26.562Z,40.20
2018-07-01T20:04:56.144Z,40.00
2018-07-01T20:07:28.451Z,40.90
2018-07-01T20:09:58.185Z,41.00
2018-07-01T20:12:27.298Z,41.90
2018-07-01T20:14:57.703Z,42.30
2018-07-01T20:17:26.567Z,42.90
2018-07-01T20:19:55.779Z,42.70
2018-07-01T20:22:24.568Z,43.70
2018-07-01T20:24:53.272Z,43.00
2018-07-01T20:27:22.167Z,43.20
2018-07-01T20:29:51.381Z,42.40
2018-07-01T20:32:20.267Z,42.80
2018-07-01T20:34:49.049Z,42.60
2018-07-01T20:37:17.792Z,43.00
2018-07-01T20:39:47.373Z,43.20
2018-07-01T20:42:16.592Z,42.80
2018-07-01T20:44:45.516Z,43.40
2018-07-01T20:47:14.896Z,44.10
2018-07-01T20:49:44.113Z,43.20
2018-07-01T20:52:13.075Z,43.90
2018-07-01T20:54:41.977Z,44.30
2018-07-01T20:57:11.543Z,45.20
2018-07-01T20:59:40.389Z,45.10
2018-07-01T21:02:09.600Z,45.20
2018-07-01T21:04:40.439Z,45.90
2018-07-01T21:07:09.259Z,45.50
2018-07-01T21:09:38.220Z,46.80
2018-07-01T21:12:07.223Z,46.80
2018-07-01T21:14:36.124Z,47.00
2018-07-01T21:17:05.164Z,46.30
2018-07-01T21:19:34.172Z,47.10
2018-07-01T21:22:02.966Z,47.80
2018-07-01T21:24:32.325Z,47.40
2018-07-01T21:27:01.647Z,47.90
2018-07-01T21:29:30.749Z,48.80
2018-07-01T21:31:59.833Z,49.50
2018-07-01T21:34:28.775Z,49.60
2018-07-01T21:36:58.210Z,50.40
2018-07-01T21:39:27.442Z,51.40
2018-07-01T21:41:56.501Z,52.20
2018-07-01T21:44:26.070Z,52.20
2018-07-01T21:46:55.317Z,51.60
2018-07-01T21:49:24.077Z,51.30
2018-07-01T21:51:53.054Z,52.10
2018-07-01T21:54:21.909Z,53.30
2018-07-01T21:56:52.217Z,54.20
2018-07-01T22:19:39.276Z,53.30
2018-07-01T22:22:08.146Z,55.30
2018-07-01T22:24:37.867Z,55.20
2018-07-01T22:27:06.929Z,54.30
2018-07-01T22:29:35.970Z,54.10
2018-07-01T22:32:04.948Z,54.30
2018-07-01T22:34:33.728Z,56.10
2018-07-01T22:37:02.579Z,56.60
2018-07-01T22:39:31.706Z,58.60
2018-07-01T22:42:01.591Z,58.70
2018-07-01T22:44:30.857Z,58.50
2018-07-01T22:46:59.598Z,57.30
2018-07-01T22:49:28.233Z,56.80
2018-07-01T22:51:56.989Z,56.80
2018-07-01T22:54:25.974Z,57.10
2018-07-01T22:56:54.976Z,57.00
2018-07-01T22:59:23.712Z,59.40
2018-07-01T23:03:06.000Z,60.60
2018-07-01T23:05:34.921Z,60.70
2018-07-01T23:08:04.243Z,63.20
2018-07-01T23:10:33.212Z,64.70
2018-07-01T23:13:02.082Z,65.90
2018-07-01T23:15:31.124Z,65.80
2018-07-01T23:18:00.162Z,64.10
2018-07-01T23:20:29.563Z,64.80
2018-07-01T23:22:58.705Z,64.20
2018-07-01T23:25:27.848Z,62.70
2018-07-01T23:27:56.620Z,62.50
2018-07-01T23:30:25.406Z,62.50
2018-07-01T23:32:54.171Z,62.50
2018-07-01T23:35:22.928Z,63.30
2018-07-01T23:37:52.092Z,65.00
2018-07-01T23:40:22.127Z,65.10
2018-07-01T23:42:51.062Z,65.60
2018-07-01T23:45:19.974Z,65.40
2018-07-01T23:47:49.371Z,66.00
2018-07-01T23:50:18.794Z,66.20
2018-07-01T23:52:47.670Z,66.70
2018-07-01T23:55:16.674Z,67.20
2018-07-01T23:57:46.216Z,67.30
